sensor_id;sensor_type;location;lat;lon;timestamp;temperature;humidity
17726;DHT22;8983;53.156;17.960;2024-02-23T00:02:06;8.50;99.90
17726;DHT22;8983;53.156;17.960;2024-02-23T00:04:35;8.50;99.90
17726;DHT22;8983;53.156;17.960;2024-02-23T00:07:04;8.40;99.90
17726;DHT22;8983;53.156;17.960;2024-02-23T00:09:32;8.40;99.90
17726;DHT22;8983;53.156;17.960;2024-02-23T00:12:01;9.00;99.90
17726;DHT22;8983;53.156;17.960;2024-02-23T00:14:30;8.40;99.90
17726;DHT22;8983;53.156;17.960;2024-02-23T00:16:59;8.40;99.90
17726;DHT22;8983;53.156;17.960;2024-02-23T00:19:30;8.40;99.90
17726;DHT22;8983;53.156;17.960;2024-02-23T00:21:58;8.40;99.90
17726;DHT22;8983;53.156;17.960;2024-02-23T00:24:27;8.40;99.90
17726;DHT22;8983;53.156;17.960;2024-02-23T00:26:55;8.40;99.90
17726;DHT22;8983;53.156;17.960;2024-02-23T00:29:24;8.30;99.90
17726;DHT22;8983;53.156;17.960;2024-02-23T00:31:53;8.00;99.90
17726;DHT22;8983;53.156;17.960;2024-02-23T00:34:22;8.40;99.90
17726;DHT22;8983;53.156;17.960;2024-02-23T00:36:51;8.50;99.90
17726;DHT22;8983;53.156;17.960;2024-02-23T00:39:19;9.10;99.90
17726;DHT22;8983;53.156;17.960;2024-02-23T00:41:47;8.60;99.90
17726;DHT22;8983;53.156;17.960;2024-02-23T00:44:16;8.90;99.90
17726;DHT22;8983;53.156;17.960;2024-02-23T00:46:44;8.50;99.90
17726;DHT22;8983;53.156;17.960;2024-02-23T00:49:13;8.40;99.90
17726;DHT22;8983;53.156;17.960;2024-02-23T00:51:43;8.20;99.90
17726;DHT22;8983;53.156;17.960;2024-02-23T00:54:11;8.50;99.90
17726;DHT22;8983;53.156;17.960;2024-02-23T00:56:39;8.50;99.90
17726;DHT22;8983;53.156;17.960;2024-02-23T00:59:17;8.70;99.90
17726;DHT22;8983;53.156;17.960;2024-02-23T01:01:45;9.80;99.90
17726;DHT22;8983;53.156;17.960;2024-02-23T01:04:15;8.60;99.90
17726;DHT22;8983;53.156;17.960;2024-02-23T01:06:43;8.70;99.90
17726;DHT22;8983;53.156;17.960;2024-02-23T01:09:11;8.50;99.90
17726;DHT22;8983;53.156;17.960;2024-02-23T01:11:40;8.50;99.90
17726;DHT22;8983;53.156;17.960;2024-02-23T01:14:08;10.40;99.90
17726;DHT22;8983;53.156;17.960;2024-02-23T01:16:36;8.40;99.90
17726;DHT22;8983;53.156;17.960;2024-02-23T01:19:04;9.80;99.90
17726;DHT22;8983;53.156;17.960;2024-02-23T01:21:34;9.10;99.90
17726;DHT22;8983;53.156;17.960;2024-02-23T01:24:03;8.50;99.90
17726;DHT22;8983;53.156;17.960;2024-02-23T01:26:31;8.50;99.90
17726;DHT22;8983;53.156;17.960;2024-02-23T01:29:00;8.60;99.90
17726;DHT22;8983;53.156;17.960;2024-02-23T01:31:28;8.60;99.90
17726;DHT22;8983;53.156;17.960;2024-02-23T01:33:56;8.50;99.90
17726;DHT22;8983;53.156;17.960;2024-02-23T01:36:24;9.50;99.90
17726;DHT22;8983;53.156;17.960;2024-02-23T01:38:54;9.30;99.90
17726;DHT22;8983;53.156;17.960;2024-02-23T01:41:22;8.60;99.90
17726;DHT22;8983;53.156;17.960;2024-02-23T01:43:51;8.50;99.90
17726;DHT22;8983;53.156;17.960;2024-02-23T01:46:19;8.60;99.90
17726;DHT22;8983;53.156;17.960;2024-02-23T01:48:47;9.70;99.90
17726;DHT22;8983;53.156;17.960;2024-02-23T01:51:16;8.60;99.90
17726;DHT22;8983;53.156;17.960;2024-02-23T01:53:44;8.60;99.90
17726;DHT22;8983;53.156;17.960;2024-02-23T01:56:15;8.60;99.90
17726;DHT22;8983;53.156;17.960;2024-02-23T01:58:46;8.60;99.90
17726;DHT22;8983;53.156;17.960;2024-02-23T02:01:14;8.60;99.90
17726;DHT22;8983;53.156;17.960;2024-02-23T02:03:43;8.60;99.90
17726;DHT22;8983;53.156;17.960;2024-02-23T02:06:11;8.60;99.90
17726;DHT22;8983;53.156;17.960;2024-02-23T02:08:40;8.70;99.90
17726;DHT22;8983;53.156;17.960;2024-02-23T02:11:08;8.60;99.90
17726;DHT22;8983;53.156;17.960;2024-02-23T02:13:38;8.60;99.90
17726;DHT22;8983;53.156;17.960;2024-02-23T02:16:06;8.50;99.90
17726;DHT22;8983;53.156;17.960;2024-02-23T02:18:34;8.60;99.90
17726;DHT22;8983;53.156;17.960;2024-02-23T02:21:03;7.20;99.90
17726;DHT22;8983;53.156;17.960;2024-02-23T02:23:31;8.60;99.90
17726;DHT22;8983;53.156;17.960;2024-02-23T02:25:59;10.10;99.90
17726;DHT22;8983;53.156;17.960;2024-02-23T02:28:28;8.60;99.90
17726;DHT22;8983;53.156;17.960;2024-02-23T02:30:57;8.60;99.90
17726;DHT22;8983;53.156;17.960;2024-02-23T02:33:26;8.60;99.90
17726;DHT22;8983;53.156;17.960;2024-02-23T02:35:55;8.60;99.90
17726;DHT22;8983;53.156;17.960;2024-02-23T02:38:23;8.60;99.90
17726;DHT22;8983;53.156;17.960;2024-02-23T02:40:52;8.60;99.90
17726;DHT22;8983;53.156;17.960;2024-02-23T02:43:20;8.60;99.90
17726;DHT22;8983;53.156;17.960;2024-02-23T02:45:48;8.60;99.90
17726;DHT22;8983;53.156;17.960;2024-02-23T02:48:18;8.60;99.90
17726;DHT22;8983;53.156;17.960;2024-02-23T02:50:46;8.70;99.90
17726;DHT22;8983;53.156;17.960;2024-02-23T02:53:20;8.60;99.90
17726;DHT22;8983;53.156;17.960;2024-02-23T02:55:48;8.70;99.90
17726;DHT22;8983;53.156;17.960;2024-02-23T02:58:16;9.70;99.90
17726;DHT22;8983;53.156;17.960;2024-02-23T03:00:44;10.40;99.90
17726;DHT22;8983;53.156;17.960;2024-02-23T03:03:12;8.70;99.90
17726;DHT22;8983;53.156;17.960;2024-02-23T03:05:42;8.70;99.90
17726;DHT22;8983;53.156;17.960;2024-02-23T03:08:10;8.70;99.90
17726;DHT22;8983;53.156;17.960;2024-02-23T03:10:39;8.60;99.90
17726;DHT22;8983;53.156;17.960;2024-02-23T03:15:35;8.70;99.90
17726;DHT22;8983;53.156;17.960;2024-02-23T03:18:04;8.90;99.90
17726;DHT22;8983;53.156;17.960;2024-02-23T03:20:33;8.70;99.90
17726;DHT22;8983;53.156;17.960;2024-02-23T03:23:02;8.80;99.90
17726;DHT22;8983;53.156;17.960;2024-02-23T03:25:31;8.70;99.90
17726;DHT22;8983;53.156;17.960;2024-02-23T03:27:59;8.70;99.90
17726;DHT22;8983;53.156;17.960;2024-02-23T03:30:27;8.70;99.90
17726;DHT22;8983;53.156;17.960;2024-02-23T03:32:58;8.50;99.90
17726;DHT22;8983;53.156;17.960;2024-02-23T03:35:26;10.80;99.90
17726;DHT22;8983;53.156;17.960;2024-02-23T03:37:54;8.80;99.90
17726;DHT22;8983;53.156;17.960;2024-02-23T03:40:24;8.80;99.90
17726;DHT22;8983;53.156;17.960;2024-02-23T03:42:52;8.90;99.90
17726;DHT22;8983;53.156;17.960;2024-02-23T03:45:20;8.90;99.90
17726;DHT22;8983;53.156;17.960;2024-02-23T03:47:48;9.20;99.90
17726;DHT22;8983;53.156;17.960;2024-02-23T03:52:45;8.90;99.90
17726;DHT22;8983;53.156;17.960;2024-02-23T03:55:13;8.90;99.90
17726;DHT22;8983;53.156;17.960;2024-02-23T03:57:43;8.90;99.90
17726;DHT22;8983;53.156;17.960;2024-02-23T04:02:42;9.20;99.90
17726;DHT22;8983;53.156;17.960;2024-02-23T04:05:10;9.20;99.90
17726;DHT22;8983;53.156;17.960;2024-02-23T04:07:38;9.40;99.90
17726;DHT22;8983;53.156;17.960;2024-02-23T04:10:07;8.80;99.90
17726;DHT22;8983;53.156;17.960;2024-02-23T04:12:36;9.20;99.90
17726;DHT22;8983;53.156;17.960;2024-02-23T04:15:06;9.00;99.90
17726;DHT22;8983;53.156;17.960;2024-02-23T04:17:34;8.90;99.90
17726;DHT22;8983;53.156;17.960;2024-02-23T04:20:06;9.30;99.90
17726;DHT22;8983;53.156;17.960;2024-02-23T04:22:36;9.00;99.90
17726;DHT22;8983;53.156;17.960;2024-02-23T04:25:05;9.10;99.90
17726;DHT22;8983;53.156;17.960;2024-02-23T04:27:33;9.00;99.90
17726;DHT22;8983;53.156;17.960;2024-02-23T04:30:01;9.30;99.90
17726;DHT22;8983;53.156;17.960;2024-02-23T04:32:31;9.00;99.90
17726;DHT22;8983;53.156;17.960;2024-02-23T04:35:00;9.20;99.90
17726;DHT22;8983;53.156;17.960;2024-02-23T04:37:28;10.30;99.90
17726;DHT22;8983;53.156;17.960;2024-02-23T04:42:27;9.20;99.90
17726;DHT22;8983;53.156;17.960;2024-02-23T04:44:55;9.30;99.90
17726;DHT22;8983;53.156;17.960;2024-02-23T04:47:23;9.40;99.90
17726;DHT22;8983;53.156;17.960;2024-02-23T04:49:53;9.10;99.90
17726;DHT22;8983;53.156;17.960;2024-02-23T04:52:21;8.80;99.90
17726;DHT22;8983;53.156;17.960;2024-02-23T04:54:49;9.20;99.90
17726;DHT22;8983;53.156;17.960;2024-02-23T04:59:46;9.20;99.90
17726;DHT22;8983;53.156;17.960;2024-02-23T05:02:14;9.60;99.90
17726;DHT22;8983;53.156;17.960;2024-02-23T05:04:42;8.90;99.90
17726;DHT22;8983;53.156;17.960;2024-02-23T05:07:12;9.10;99.90
17726;DHT22;8983;53.156;17.960;2024-02-23T05:09:40;9.60;99.90
17726;DHT22;8983;53.156;17.960;2024-02-23T05:12:09;9.50;99.90
17726;DHT22;8983;53.156;17.960;2024-02-23T05:14:37;9.20;99.90
17726;DHT22;8983;53.156;17.960;2024-02-23T05:17:05;9.20;99.90
17726;DHT22;8983;53.156;17.960;2024-02-23T05:19:33;9.30;99.90
17726;DHT22;8983;53.156;17.960;2024-02-23T05:22:02;9.60;99.90
17726;DHT22;8983;53.156;17.960;2024-02-23T05:24:32;9.50;99.90
17726;DHT22;8983;53.156;17.960;2024-02-23T05:27:00;9.40;99.90
17726;DHT22;8983;53.156;17.960;2024-02-23T05:31:59;9.50;99.90
17726;DHT22;8983;53.156;17.960;2024-02-23T05:34:27;9.30;99.90
17726;DHT22;8983;53.156;17.960;2024-02-23T05:36:57;9.30;99.90
17726;DHT22;8983;53.156;17.960;2024-02-23T05:39:25;9.00;99.90
17726;DHT22;8983;53.156;17.960;2024-02-23T05:41:54;9.50;99.90
17726;DHT22;8983;53.156;17.960;2024-02-23T05:44:22;8.90;99.90
17726;DHT22;8983;53.156;17.960;2024-02-23T05:46:51;9.00;99.90
17726;DHT22;8983;53.156;17.960;2024-02-23T05:49:19;9.20;99.90
17726;DHT22;8983;53.156;17.960;2024-02-23T05:51:47;9.00;99.90
17726;DHT22;8983;53.156;17.960;2024-02-23T05:54:15;9.20;99.90
17726;DHT22;8983;53.156;17.960;2024-02-23T05:56:44;9.00;99.90
17726;DHT22;8983;53.156;17.960;2024-02-23T05:59:14;9.30;99.90
17726;DHT22;8983;53.156;17.960;2024-02-23T06:01:42;9.20;99.90
17726;DHT22;8983;53.156;17.960;2024-02-23T06:04:10;9.20;99.90
17726;DHT22;8983;53.156;17.960;2024-02-23T06:06:41;9.20;99.90
17726;DHT22;8983;53.156;17.960;2024-02-23T06:09:09;9.40;99.90
17726;DHT22;8983;53.156;17.960;2024-02-23T06:14:06;9.10;99.90
17726;DHT22;8983;53.156;17.960;2024-02-23T06:16:36;9.60;99.90
17726;DHT22;8983;53.156;17.960;2024-02-23T06:26:30;9.40;99.90
17726;DHT22;8983;53.156;17.960;2024-02-23T06:31:27;9.50;99.90
17726;DHT22;8983;53.156;17.960;2024-02-23T06:33:57;9.70;99.90
17726;DHT22;8983;53.156;17.960;2024-02-23T06:36:25;9.20;99.90
17726;DHT22;8983;53.156;17.960;2024-02-23T06:38:53;9.30;99.90
17726;DHT22;8983;53.156;17.960;2024-02-23T06:48:48;9.60;99.90
17726;DHT22;8983;53.156;17.960;2024-02-23T06:51:18;9.50;99.90
17726;DHT22;8983;53.156;17.960;2024-02-23T06:56:15;9.50;99.90
17726;DHT22;8983;53.156;17.960;2024-02-23T07:03:41;10.10;99.90
17726;DHT22;8983;53.156;17.960;2024-02-23T07:06:11;9.70;99.90
17726;DHT22;8983;53.156;17.960;2024-02-23T07:08:40;9.70;99.90
17726;DHT22;8983;53.156;17.960;2024-02-23T07:11:08;9.70;99.90
17726;DHT22;8983;53.156;17.960;2024-02-23T07:13:37;9.70;99.90
17726;DHT22;8983;53.156;17.960;2024-02-23T07:16:06;9.60;99.90
17726;DHT22;8983;53.156;17.960;2024-02-23T07:18:34;9.70;99.90
17726;DHT22;8983;53.156;17.960;2024-02-23T07:26:00;9.80;99.90
17726;DHT22;8983;53.156;17.960;2024-02-23T07:30:57;9.90;99.90
17726;DHT22;8983;53.156;17.960;2024-02-23T07:33:25;9.70;99.90
17726;DHT22;8983;53.156;17.960;2024-02-23T07:35:54;9.70;99.90
17726;DHT22;8983;53.156;17.960;2024-02-23T07:38:22;9.70;99.90
17726;DHT22;8983;53.156;17.960;2024-02-23T07:43:20;9.90;99.90
17726;DHT22;8983;53.156;17.960;2024-02-23T07:45:48;10.40;99.90
17726;DHT22;8983;53.156;17.960;2024-02-23T07:48:16;9.60;99.90
17726;DHT22;8983;53.156;17.960;2024-02-23T07:50:45;9.80;99.90
17726;DHT22;8983;53.156;17.960;2024-02-23T07:53:13;9.70;99.90
17726;DHT22;8983;53.156;17.960;2024-02-23T08:00:39;9.80;99.90
17726;DHT22;8983;53.156;17.960;2024-02-23T08:05:36;9.60;99.90
17726;DHT22;8983;53.156;17.960;2024-02-23T08:08:05;9.60;99.90
17726;DHT22;8983;53.156;17.960;2024-02-23T08:10:34;9.60;99.90
17726;DHT22;8983;53.156;17.960;2024-02-23T08:13:02;9.90;99.90
17726;DHT22;8983;53.156;17.960;2024-02-23T08:15:30;9.60;99.90
17726;DHT22;8983;53.156;17.960;2024-02-23T08:18:00;9.70;99.90
17726;DHT22;8983;53.156;17.960;2024-02-23T08:20:28;9.40;99.90
17726;DHT22;8983;53.156;17.960;2024-02-23T08:22:56;9.80;99.90
17726;DHT22;8983;53.156;17.960;2024-02-23T08:25:24;9.60;99.90
17726;DHT22;8983;53.156;17.960;2024-02-23T08:27:55;9.80;99.90
17726;DHT22;8983;53.156;17.960;2024-02-23T08:30:23;10.70;99.90
17726;DHT22;8983;53.156;17.960;2024-02-23T08:35:21;9.80;99.90
17726;DHT22;8983;53.156;17.960;2024-02-23T08:37:50;9.80;99.90
17726;DHT22;8983;53.156;17.960;2024-02-23T08:40:18;9.90;99.90
17726;DHT22;8983;53.156;17.960;2024-02-23T08:42:46;9.90;99.90
17726;DHT22;8983;53.156;17.960;2024-02-23T08:45:16;9.90;99.90
17726;DHT22;8983;53.156;17.960;2024-02-23T08:47:44;9.90;99.90
17726;DHT22;8983;53.156;17.960;2024-02-23T08:50:13;11.50;99.90
17726;DHT22;8983;53.156;17.960;2024-02-23T08:52:43;9.90;99.90
17726;DHT22;8983;53.156;17.960;2024-02-23T08:55:11;10.00;99.90
17726;DHT22;8983;53.156;17.960;2024-02-23T08:57:39;10.00;99.90
17726;DHT22;8983;53.156;17.960;2024-02-23T09:00:08;10.00;99.90
17726;DHT22;8983;53.156;17.960;2024-02-23T09:02:37;10.00;99.90
17726;DHT22;8983;53.156;17.960;2024-02-23T09:05:06;10.10;99.90
17726;DHT22;8983;53.156;17.960;2024-02-23T09:07:34;10.20;99.90
17726;DHT22;8983;53.156;17.960;2024-02-23T09:10:05;10.20;99.90
17726;DHT22;8983;53.156;17.960;2024-02-23T09:12:33;10.20;99.90
17726;DHT22;8983;53.156;17.960;2024-02-23T09:15:02;10.30;99.90
17726;DHT22;8983;53.156;17.960;2024-02-23T09:17:30;10.30;99.90
17726;DHT22;8983;53.156;17.960;2024-02-23T09:19:58;10.30;99.90
17726;DHT22;8983;53.156;17.960;2024-02-23T09:22:27;10.50;99.90
17726;DHT22;8983;53.156;17.960;2024-02-23T09:24:55;10.30;99.90
17726;DHT22;8983;53.156;17.960;2024-02-23T09:27:25;10.40;99.90
17726;DHT22;8983;53.156;17.960;2024-02-23T09:29:53;10.40;99.90
17726;DHT22;8983;53.156;17.960;2024-02-23T09:32:21;10.40;99.90
17726;DHT22;8983;53.156;17.960;2024-02-23T09:34:49;10.30;99.90
17726;DHT22;8983;53.156;17.960;2024-02-23T09:37:18;10.40;99.90
17726;DHT22;8983;53.156;17.960;2024-02-23T09:39:46;10.40;99.90
17726;DHT22;8983;53.156;17.960;2024-02-23T09:42:14;10.50;99.90
17726;DHT22;8983;53.156;17.960;2024-02-23T09:44:47;10.30;99.90
17726;DHT22;8983;53.156;17.960;2024-02-23T09:47:18;10.50;99.90
17726;DHT22;8983;53.156;17.960;2024-02-23T09:49:48;10.50;99.90
17726;DHT22;8983;53.156;17.960;2024-02-23T09:52:19;10.60;99.90
17726;DHT22;8983;53.156;17.960;2024-02-23T09:54:48;10.50;99.90
17726;DHT22;8983;53.156;17.960;2024-02-23T09:57:17;10.60;99.90
17726;DHT22;8983;53.156;17.960;2024-02-23T09:59:48;10.60;99.90
17726;DHT22;8983;53.156;17.960;2024-02-23T10:02:16;10.60;99.90
17726;DHT22;8983;53.156;17.960;2024-02-23T10:04:45;10.70;99.90
17726;DHT22;8983;53.156;17.960;2024-02-23T10:07:15;10.70;99.90
17726;DHT22;8983;53.156;17.960;2024-02-23T10:09:44;10.70;99.90
17726;DHT22;8983;53.156;17.960;2024-02-23T10:12:13;10.70;99.90
17726;DHT22;8983;53.156;17.960;2024-02-23T10:14:41;10.70;99.90
17726;DHT22;8983;53.156;17.960;2024-02-23T10:17:11;10.70;99.90
17726;DHT22;8983;53.156;17.960;2024-02-23T10:19:39;10.80;99.90
17726;DHT22;8983;53.156;17.960;2024-02-23T10:22:07;10.80;99.90
17726;DHT22;8983;53.156;17.960;2024-02-23T10:24:36;10.80;99.90
17726;DHT22;8983;53.156;17.960;2024-02-23T10:27:04;10.70;99.90
17726;DHT22;8983;53.156;17.960;2024-02-23T10:29:33;11.30;99.90
17726;DHT22;8983;53.156;17.960;2024-02-23T10:32:01;10.90;99.90
17726;DHT22;8983;53.156;17.960;2024-02-23T10:34:31;10.90;99.90
17726;DHT22;8983;53.156;17.960;2024-02-23T10:37:04;10.90;99.90
17726;DHT22;8983;53.156;17.960;2024-02-23T10:39:36;10.90;99.90
17726;DHT22;8983;53.156;17.960;2024-02-23T10:42:05;10.90;99.90
17726;DHT22;8983;53.156;17.960;2024-02-23T10:44:37;10.90;99.90
17726;DHT22;8983;53.156;17.960;2024-02-23T10:47:07;10.90;99.90
17726;DHT22;8983;53.156;17.960;2024-02-23T10:49:38;11.70;99.90
17726;DHT22;8983;53.156;17.960;2024-02-23T10:52:07;10.90;99.90
17726;DHT22;8983;53.156;17.960;2024-02-23T10:54:39;10.90;99.90
17726;DHT22;8983;53.156;17.960;2024-02-23T10:57:08;11.00;99.90
17726;DHT22;8983;53.156;17.960;2024-02-23T10:59:36;11.00;99.90
17726;DHT22;8983;53.156;17.960;2024-02-23T11:02:05;11.00;99.90
17726;DHT22;8983;53.156;17.960;2024-02-23T11:04:34;11.10;99.90
17726;DHT22;8983;53.156;17.960;2024-02-23T11:07:13;11.10;99.90
17726;DHT22;8983;53.156;17.960;2024-02-23T11:09:41;11.30;99.90
17726;DHT22;8983;53.156;17.960;2024-02-23T11:12:09;11.40;99.90
17726;DHT22;8983;53.156;17.960;2024-02-23T11:14:38;11.50;99.90
17726;DHT22;8983;53.156;17.960;2024-02-23T11:17:06;11.60;99.90
17726;DHT22;8983;53.156;17.960;2024-02-23T11:19:35;11.70;99.90
17726;DHT22;8983;53.156;17.960;2024-02-23T11:22:09;11.80;99.90
17726;DHT22;8983;53.156;17.960;2024-02-23T11:24:49;11.90;99.90
17726;DHT22;8983;53.156;17.960;2024-02-23T11:27:24;12.00;99.90
17726;DHT22;8983;53.156;17.960;2024-02-23T11:29:59;12.10;99.90
17726;DHT22;8983;53.156;17.960;2024-02-23T11:32:37;12.10;99.90
17726;DHT22;8983;53.156;17.960;2024-02-23T11:35:08;12.10;99.90
17726;DHT22;8983;53.156;17.960;2024-02-23T11:37:47;12.20;99.90
17726;DHT22;8983;53.156;17.960;2024-02-23T11:40:17;12.40;99.90
17726;DHT22;8983;53.156;17.960;2024-02-23T11:42:46;12.60;99.90
17726;DHT22;8983;53.156;17.960;2024-02-23T11:45:15;12.50;99.90
17726;DHT22;8983;53.156;17.960;2024-02-23T11:47:44;12.40;99.90
17726;DHT22;8983;53.156;17.960;2024-02-23T11:50:14;12.40;99.90
17726;DHT22;8983;53.156;17.960;2024-02-23T11:52:43;12.30;99.90
17726;DHT22;8983;53.156;17.960;2024-02-23T11:55:13;12.30;99.90
17726;DHT22;8983;53.156;17.960;2024-02-23T11:57:46;12.20;99.90
17726;DHT22;8983;53.156;17.960;2024-02-23T12:00:17;12.20;99.90
17726;DHT22;8983;53.156;17.960;2024-02-23T12:02:45;12.30;99.90
17726;DHT22;8983;53.156;17.960;2024-02-23T12:05:16;12.40;99.90
17726;DHT22;8983;53.156;17.960;2024-02-23T12:07:45;12.50;99.90
17726;DHT22;8983;53.156;17.960;2024-02-23T12:10:15;12.60;99.90
17726;DHT22;8983;53.156;17.960;2024-02-23T12:12:44;12.60;99.90
17726;DHT22;8983;53.156;17.960;2024-02-23T12:15:12;12.60;99.90
17726;DHT22;8983;53.156;17.960;2024-02-23T12:17:46;12.70;99.90
17726;DHT22;8983;53.156;17.960;2024-02-23T12:20:15;12.70;99.90
17726;DHT22;8983;53.156;17.960;2024-02-23T12:22:44;12.70;99.90
17726;DHT22;8983;53.156;17.960;2024-02-23T12:25:12;12.70;99.90
17726;DHT22;8983;53.156;17.960;2024-02-23T12:27:43;12.70;99.90
17726;DHT22;8983;53.156;17.960;2024-02-23T12:30:13;12.70;99.90
17726;DHT22;8983;53.156;17.960;2024-02-23T12:32:42;12.80;99.90
17726;DHT22;8983;53.156;17.960;2024-02-23T12:35:11;12.80;99.90
17726;DHT22;8983;53.156;17.960;2024-02-23T12:37:40;12.80;99.90
17726;DHT22;8983;53.156;17.960;2024-02-23T12:40:11;12.70;99.90
17726;DHT22;8983;53.156;17.960;2024-02-23T12:42:39;12.60;99.90
17726;DHT22;8983;53.156;17.960;2024-02-23T12:45:09;12.50;99.90
17726;DHT22;8983;53.156;17.960;2024-02-23T12:47:37;12.40;99.90
17726;DHT22;8983;53.156;17.960;2024-02-23T12:50:07;12.20;99.90
17726;DHT22;8983;53.156;17.960;2024-02-23T12:52:37;12.10;99.90
17726;DHT22;8983;53.156;17.960;2024-02-23T12:55:05;12.10;99.90
17726;DHT22;8983;53.156;17.960;2024-02-23T12:57:34;12.00;99.90
17726;DHT22;8983;53.156;17.960;2024-02-23T13:00:03;11.90;99.90
17726;DHT22;8983;53.156;17.960;2024-02-23T13:02:33;11.80;99.90
17726;DHT22;8983;53.156;17.960;2024-02-23T13:05:01;11.80;99.90
17726;DHT22;8983;53.156;17.960;2024-02-23T13:07:30;11.70;99.90
17726;DHT22;8983;53.156;17.960;2024-02-23T13:09:58;12.00;99.90
17726;DHT22;8983;53.156;17.960;2024-02-23T13:12:26;11.60;99.90
17726;DHT22;8983;53.156;17.960;2024-02-23T13:14:54;11.50;99.90
17726;DHT22;8983;53.156;17.960;2024-02-23T13:17:23;11.90;99.90
17726;DHT22;8983;53.156;17.960;2024-02-23T13:19:52;11.50;99.90
17726;DHT22;8983;53.156;17.960;2024-02-23T13:22:36;11.50;99.90
17726;DHT22;8983;53.156;17.960;2024-02-23T13:25:05;11.40;99.90
17726;DHT22;8983;53.156;17.960;2024-02-23T13:27:34;11.40;99.90
17726;DHT22;8983;53.156;17.960;2024-02-23T13:30:02;11.40;99.90
17726;DHT22;8983;53.156;17.960;2024-02-23T13:32:30;11.40;99.90
17726;DHT22;8983;53.156;17.960;2024-02-23T13:35:01;11.30;99.90
17726;DHT22;8983;53.156;17.960;2024-02-23T13:37:31;11.30;99.90
17726;DHT22;8983;53.156;17.960;2024-02-23T13:40:01;11.30;99.90
17726;DHT22;8983;53.156;17.960;2024-02-23T13:42:30;11.30;99.90
17726;DHT22;8983;53.156;17.960;2024-02-23T13:44:58;11.20;99.90
17726;DHT22;8983;53.156;17.960;2024-02-23T13:47:27;10.60;99.90
17726;DHT22;8983;53.156;17.960;2024-02-23T13:49:55;11.80;99.90
17726;DHT22;8983;53.156;17.960;2024-02-23T13:52:25;11.40;99.90
17726;DHT22;8983;53.156;17.960;2024-02-23T13:54:53;11.20;99.90
17726;DHT22;8983;53.156;17.960;2024-02-23T13:57:21;11.20;99.90
17726;DHT22;8983;53.156;17.960;2024-02-23T13:59:49;11.20;99.90
17726;DHT22;8983;53.156;17.960;2024-02-23T14:02:24;11.20;99.90
17726;DHT22;8983;53.156;17.960;2024-02-23T14:04:53;11.20;99.90
17726;DHT22;8983;53.156;17.960;2024-02-23T14:07:21;10.80;99.90
17726;DHT22;8983;53.156;17.960;2024-02-23T14:09:51;11.30;99.90
17726;DHT22;8983;53.156;17.960;2024-02-23T14:12:19;11.30;99.90
17726;DHT22;8983;53.156;17.960;2024-02-23T14:14:47;12.70;99.90
17726;DHT22;8983;53.156;17.960;2024-02-23T14:17:15;11.40;99.90
17726;DHT22;8983;53.156;17.960;2024-02-23T14:19:43;11.40;99.90
17726;DHT22;8983;53.156;17.960;2024-02-23T14:22:12;11.30;99.90
17726;DHT22;8983;53.156;17.960;2024-02-23T14:24:40;11.80;99.90
17726;DHT22;8983;53.156;17.960;2024-02-23T14:27:10;11.20;99.90
17726;DHT22;8983;53.156;17.960;2024-02-23T14:29:38;11.40;99.90
17726;DHT22;8983;53.156;17.960;2024-02-23T14:32:07;11.20;99.90
17726;DHT22;8983;53.156;17.960;2024-02-23T14:34:35;11.10;99.90
17726;DHT22;8983;53.156;17.960;2024-02-23T14:37:04;11.10;99.90
17726;DHT22;8983;53.156;17.960;2024-02-23T14:39:32;11.10;99.90
17726;DHT22;8983;53.156;17.960;2024-02-23T14:42:01;11.10;99.90
17726;DHT22;8983;53.156;17.960;2024-02-23T14:44:31;11.10;99.90
17726;DHT22;8983;53.156;17.960;2024-02-23T14:46:59;11.10;99.90
17726;DHT22;8983;53.156;17.960;2024-02-23T14:49:27;11.00;99.90
17726;DHT22;8983;53.156;17.960;2024-02-23T14:51:56;11.10;99.90
17726;DHT22;8983;53.156;17.960;2024-02-23T14:54:24;11.20;99.90
17726;DHT22;8983;53.156;17.960;2024-02-23T14:56:52;11.10;99.90
17726;DHT22;8983;53.156;17.960;2024-02-23T14:59:20;11.10;99.90
17726;DHT22;8983;53.156;17.960;2024-02-23T15:01:50;11.10;99.90
17726;DHT22;8983;53.156;17.960;2024-02-23T15:04:18;11.20;99.90
17726;DHT22;8983;53.156;17.960;2024-02-23T15:06:46;11.00;99.90
17726;DHT22;8983;53.156;17.960;2024-02-23T15:09:14;11.00;99.90
17726;DHT22;8983;53.156;17.960;2024-02-23T15:11:43;10.90;99.90
17726;DHT22;8983;53.156;17.960;2024-02-23T15:14:11;11.20;99.90
17726;DHT22;8983;53.156;17.960;2024-02-23T15:16:42;10.90;99.90
17726;DHT22;8983;53.156;17.960;2024-02-23T15:19:12;10.80;99.90
17726;DHT22;8983;53.156;17.960;2024-02-23T15:21:40;10.80;99.90
17726;DHT22;8983;53.156;17.960;2024-02-23T15:24:09;10.80;99.90
17726;DHT22;8983;53.156;17.960;2024-02-23T15:26:37;11.10;99.90
17726;DHT22;8983;53.156;17.960;2024-02-23T15:29:05;11.90;99.90
17726;DHT22;8983;53.156;17.960;2024-02-23T15:31:33;10.70;99.90
17726;DHT22;8983;53.156;17.960;2024-02-23T15:34:05;11.50;99.90
17726;DHT22;8983;53.156;17.960;2024-02-23T15:36:35;10.70;99.90
17726;DHT22;8983;53.156;17.960;2024-02-23T15:39:03;10.60;99.90
17726;DHT22;8983;53.156;17.960;2024-02-23T15:41:33;11.20;99.90
17726;DHT22;8983;53.156;17.960;2024-02-23T15:44:02;11.50;99.90
17726;DHT22;8983;53.156;17.960;2024-02-23T15:46:30;10.50;99.90
17726;DHT22;8983;53.156;17.960;2024-02-23T15:48:58;10.60;99.90
17726;DHT22;8983;53.156;17.960;2024-02-23T15:51:38;10.80;99.90
17726;DHT22;8983;53.156;17.960;2024-02-23T15:54:20;10.50;99.90
17726;DHT22;8983;53.156;17.960;2024-02-23T15:56:49;9.80;99.90
17726;DHT22;8983;53.156;17.960;2024-02-23T15:59:17;11.30;99.90
17726;DHT22;8983;53.156;17.960;2024-02-23T16:01:46;10.50;99.90
17726;DHT22;8983;53.156;17.960;2024-02-23T16:04:15;10.50;99.90
17726;DHT22;8983;53.156;17.960;2024-02-23T16:06:44;10.70;99.90
17726;DHT22;8983;53.156;17.960;2024-02-23T16:09:13;10.30;99.90
17726;DHT22;8983;53.156;17.960;2024-02-23T16:11:44;10.30;99.90
17726;DHT22;8983;53.156;17.960;2024-02-23T16:14:13;10.30;99.90
17726;DHT22;8983;53.156;17.960;2024-02-23T16:16:42;10.20;99.90
17726;DHT22;8983;53.156;17.960;2024-02-23T16:19:11;10.20;99.90
17726;DHT22;8983;53.156;17.960;2024-02-23T16:21:40;10.20;99.90
17726;DHT22;8983;53.156;17.960;2024-02-23T16:24:11;10.10;99.90
17726;DHT22;8983;53.156;17.960;2024-02-23T16:26:39;10.10;99.90
17726;DHT22;8983;53.156;17.960;2024-02-23T16:29:08;10.10;99.90
17726;DHT22;8983;53.156;17.960;2024-02-23T16:31:36;10.10;99.90
17726;DHT22;8983;53.156;17.960;2024-02-23T16:34:04;10.00;99.90
17726;DHT22;8983;53.156;17.960;2024-02-23T16:36:33;10.00;99.90
17726;DHT22;8983;53.156;17.960;2024-02-23T16:39:01;10.00;99.90
17726;DHT22;8983;53.156;17.960;2024-02-23T16:41:31;9.90;99.90
17726;DHT22;8983;53.156;17.960;2024-02-23T16:44:00;9.90;99.90
17726;DHT22;8983;53.156;17.960;2024-02-23T16:46:28;9.90;99.90
17726;DHT22;8983;53.156;17.960;2024-02-23T16:48:57;9.80;99.90
17726;DHT22;8983;53.156;17.960;2024-02-23T16:51:28;9.80;99.90